Lewistown, Missouri
Current Conditions -  °F | °C
As of 12:55 AM on Monday 22 Dec 2014 (Local Time) from KHAE Reporting Station
Overcast Overcast  
Wind Chill:   Ceiling: 5000
Heat Index:   Visibility: 10mi
Dew Point:   Wind: 7mph
Humidity: 70%   Direction: 140°SE
Pressure: 29.86"   Gusts: NA
Location:  40.09°N, 91.81°W
Report Text: KHAE 220655Z AUTO 14006KT 10SM SCT043 OVC050 05/00 A2986 RMK AO2
Loading
Personal Weather Stations






























Interactive Weather Map New forecast layout! Learn more

10-Day Weather Forecast

Advertisements
Track Severe Weather on mobile